createdAt,value
2017-06-19T00:00:38.708Z,0
2017-06-19T00:01:47.601Z,0
2017-06-19T00:02:56.818Z,0
2017-06-19T00:04:06.039Z,0
2017-06-19T00:05:15.360Z,0
2017-06-19T00:06:24.900Z,0
2017-06-19T00:07:34.116Z,0
2017-06-19T00:08:43.004Z,0
2017-06-19T00:09:51.892Z,0
2017-06-19T00:11:00.820Z,0
2017-06-19T00:12:10.035Z,0
2017-06-19T00:13:19.249Z,0
2017-06-19T00:14:28.137Z,0
2017-06-19T00:15:37.029Z,0
2017-06-19T00:16:46.077Z,0
2017-06-19T00:17:54.966Z,0
2017-06-19T00:19:03.858Z,0
2017-06-19T00:20:12.750Z,0
2017-06-19T00:21:21.965Z,0
2017-06-19T00:22:31.010Z,0
2017-06-19T00:23:39.904Z,0
2017-06-19T00:24:48.796Z,0
2017-06-19T00:25:57.687Z,0
2017-06-19T00:27:06.902Z,0
2017-06-19T00:28:16.088Z,0
2017-06-19T00:29:25.304Z,0
2017-06-19T00:30:34.196Z,0
2017-06-19T00:31:43.413Z,0
2017-06-19T00:32:52.301Z,0
2017-06-19T00:34:01.346Z,0
2017-06-19T00:35:10.234Z,0
2017-06-19T00:36:19.450Z,0
2017-06-19T00:37:28.670Z,0
2017-06-19T00:38:37.880Z,0
2017-06-19T00:39:47.245Z,0
2017-06-19T00:40:56.137Z,0
2017-06-19T00:42:05.348Z,0
2017-06-19T00:43:14.245Z,0
2017-06-19T00:44:23.136Z,0
2017-06-19T00:45:32.026Z,0
2017-06-19T00:46:41.245Z,0
2017-06-19T00:47:50.136Z,0
2017-06-19T00:48:59.026Z,0
2017-06-19T00:50:07.913Z,0
2017-06-19T00:51:17.006Z,0
2017-06-19T00:52:25.897Z,0
2017-06-19T00:53:34.788Z,0
2017-06-19T00:54:43.678Z,0
2017-06-19T00:55:52.569Z,0
2017-06-19T00:57:01.461Z,0
2017-06-19T00:58:10.675Z,0
2017-06-19T00:59:19.567Z,0
2017-06-19T01:00:28.786Z,0
2017-06-19T01:01:38.002Z,0
2017-06-19T01:02:47.368Z,0
2017-06-19T01:03:56.260Z,0
2017-06-19T01:05:05.152Z,0
2017-06-19T01:06:14.366Z,0
2017-06-19T01:07:23.581Z,0
2017-06-19T01:08:32.471Z,0
2017-06-19T01:09:41.691Z,0
2017-06-19T01:10:50.907Z,0
2017-06-19T01:11:59.801Z,0
2017-06-19T01:13:08.693Z,0
2017-06-19T01:14:17.586Z,0
2017-06-19T01:15:26.475Z,0
2017-06-19T01:16:35.691Z,0
2017-06-19T01:17:44.585Z,0
2017-06-19T01:18:53.471Z,0
2017-06-19T01:20:02.663Z,0
2017-06-19T01:21:11.879Z,0
2017-06-19T01:22:20.774Z,0
2017-06-19T01:23:30.013Z,0
2017-06-19T01:24:38.905Z,0
2017-06-19T01:25:47.895Z,0
2017-06-19T01:26:56.792Z,0
2017-06-19T01:28:05.688Z,0
2017-06-19T01:29:14.577Z,0
2017-06-19T01:30:23.468Z,0
2017-06-19T01:31:32.358Z,0
2017-06-19T01:32:41.277Z,0
2017-06-19T01:33:50.494Z,0
2017-06-19T01:34:59.382Z,0
2017-06-19T01:36:08.920Z,0
2017-06-19T01:37:18.110Z,0
2017-06-19T01:38:26.998Z,0
2017-06-19T01:39:36.544Z,0
2017-06-19T01:40:45.470Z,0
2017-06-19T01:41:54.683Z,0
2017-06-19T01:43:03.726Z,0
2017-06-19T01:44:12.621Z,0
2017-06-19T01:45:21.842Z,0
2017-06-19T01:46:31.060Z,0
2017-06-19T01:47:40.597Z,0
2017-06-19T01:48:50.061Z,0
2017-06-19T01:49:59.604Z,0
2017-06-19T01:51:08.494Z,0
2017-06-19T01:52:17.711Z,0
2017-06-19T01:53:26.926Z,0
2017-06-19T01:54:36.443Z,0
2017-06-19T01:55:45.337Z,0
2017-06-19T01:56:54.552Z,0
2017-06-19T01:58:03.768Z,0
2017-06-19T01:59:13.311Z,0
2017-06-19T02:00:22.505Z,0
2017-06-19T02:01:31.724Z,0
2017-06-19T02:02:40.941Z,0
2017-06-19T02:03:49.836Z,0
2017-06-19T02:04:58.727Z,0
2017-06-19T02:06:07.617Z,0
2017-06-19T02:07:16.830Z,0
2017-06-19T02:08:25.717Z,0
2017-06-19T02:09:34.936Z,0
2017-06-19T02:10:44.475Z,0
2017-06-19T02:11:53.620Z,0
2017-06-19T02:13:02.509Z,0
2017-06-19T02:14:11.398Z,0
2017-06-19T02:15:20.286Z,0
2017-06-19T02:16:29.179Z,0
2017-06-19T02:17:38.120Z,0
2017-06-19T02:18:47.016Z,0
2017-06-19T02:19:55.906Z,0
2017-06-19T02:21:05.120Z,0
2017-06-19T02:22:14.669Z,0
2017-06-19T02:23:23.934Z,0
2017-06-19T02:24:32.820Z,0
2017-06-19T02:25:42.038Z,0
2017-06-19T02:26:50.933Z,0
2017-06-19T02:28:00.146Z,0
2017-06-19T02:29:09.140Z,0
2017-06-19T02:30:18.354Z,0
2017-06-19T02:31:27.892Z,0
2017-06-19T02:32:36.784Z,0
2017-06-19T02:33:45.999Z,0
2017-06-19T02:34:55.040Z,0
2017-06-19T02:36:04.907Z,0
2017-06-19T02:37:14.126Z,0
2017-06-19T02:38:23.371Z,0
2017-06-19T02:39:32.261Z,0
2017-06-19T02:40:41.578Z,0
2017-06-19T02:41:51.118Z,0
2017-06-19T02:43:00.329Z,0
2017-06-19T02:44:09.872Z,0
2017-06-19T02:45:18.761Z,0
2017-06-19T02:46:27.656Z,0
2017-06-19T02:47:36.871Z,0
2017-06-19T02:48:46.088Z,0
2017-06-19T02:49:54.976Z,5
2017-06-19T02:51:03.863Z,5
2017-06-19T02:52:12.902Z,5
2017-06-19T02:53:21.791Z,5
2017-06-19T02:54:30.682Z,5
2017-06-19T02:55:39.895Z,5
2017-06-19T02:56:48.787Z,5
2017-06-19T02:57:58.049Z,5
2017-06-19T02:59:06.938Z,5
2017-06-19T03:00:15.830Z,10
2017-06-19T03:01:24.716Z,10
2017-06-19T03:02:33.639Z,10
2017-06-19T03:03:42.853Z,10
2017-06-19T03:04:51.745Z,10
2017-06-19T03:06:00.960Z,10
2017-06-19T03:07:09.849Z,15
2017-06-19T03:08:18.736Z,15
2017-06-19T03:09:28.097Z,15
2017-06-19T03:10:36.986Z,15
2017-06-19T03:11:45.873Z,15
2017-06-19T03:12:54.759Z,20
2017-06-19T03:14:03.654Z,20
2017-06-19T03:15:12.600Z,20
2017-06-19T03:16:21.815Z,20
2017-06-19T03:17:30.704Z,20
2017-06-19T03:18:39.593Z,25
2017-06-19T03:19:48.485Z,25
2017-06-19T03:20:57.373Z,25
2017-06-19T03:22:06.267Z,25
2017-06-19T03:23:15.160Z,30
2017-06-19T03:24:24.052Z,30
2017-06-19T03:25:33.598Z,30
2017-06-19T03:26:42.486Z,35
2017-06-19T03:27:51.373Z,35
2017-06-19T03:29:00.264Z,35
2017-06-19T03:30:09.481Z,35
2017-06-19T03:31:18.694Z,40
2017-06-19T03:32:27.884Z,40
2017-06-19T03:33:36.769Z,40
2017-06-19T03:34:45.985Z,45
2017-06-19T03:35:54.881Z,45
2017-06-19T03:37:03.767Z,45
2017-06-19T03:38:13.088Z,45
2017-06-19T03:39:21.975Z,50
2017-06-19T03:40:31.841Z,50
2017-06-19T03:41:41.057Z,50
2017-06-19T03:42:49.946Z,55
2017-06-19T03:43:59.258Z,55
2017-06-19T03:45:08.145Z,55
2017-06-19T03:46:17.385Z,55
2017-06-19T03:47:26.602Z,60
2017-06-19T03:48:35.833Z,60
2017-06-19T03:49:44.722Z,60
2017-06-19T03:50:53.945Z,60
2017-06-19T03:52:02.836Z,65
2017-06-19T03:53:12.051Z,65
2017-06-19T03:54:21.261Z,65
2017-06-19T03:55:30.300Z,70
2017-06-19T03:56:39.195Z,70
2017-06-19T03:57:48.412Z,70
2017-06-19T03:58:58.273Z,70
2017-06-19T04:00:07.812Z,75
2017-06-19T04:01:16.753Z,75
2017-06-19T04:02:27.171Z,75
2017-06-19T04:03:36.065Z,75
2017-06-19T04:04:44.960Z,80
2017-06-19T04:05:53.854Z,80
2017-06-19T04:07:03.449Z,80
2017-06-19T04:08:12.336Z,80
2017-06-19T04:09:21.226Z,85
2017-06-19T04:10:30.441Z,85
2017-06-19T04:11:39.333Z,85
2017-06-19T04:12:48.647Z,85
2017-06-19T04:13:57.535Z,85
2017-06-19T04:15:06.429Z,90
2017-06-19T04:16:15.318Z,90
2017-06-19T04:17:24.533Z,90
2017-06-19T04:18:34.048Z,90
2017-06-19T04:19:42.935Z,90
2017-06-19T04:20:52.150Z,95
2017-06-19T04:22:01.041Z,95
2017-06-19T04:23:10.585Z,95
2017-06-19T04:24:19.726Z,95
2017-06-19T04:25:28.616Z,100
2017-06-19T04:26:37.506Z,100
2017-06-19T04:27:46.723Z,100
2017-06-19T04:28:55.617Z,100
2017-06-19T04:30:05.267Z,100
2017-06-19T04:31:14.163Z,100
2017-06-19T04:32:23.052Z,100
2017-06-19T04:33:31.944Z,100
2017-06-19T04:34:41.165Z,100
2017-06-19T04:35:50.379Z,100
2017-06-19T04:36:59.268Z,105
2017-06-19T04:38:08.159Z,105
2017-06-19T04:39:17.046Z,105
2017-06-19T04:40:26.600Z,105
2017-06-19T04:41:35.920Z,105
2017-06-19T04:42:44.809Z,105
2017-06-19T04:43:53.698Z,105
2017-06-19T04:45:02.914Z,110
2017-06-19T04:46:12.132Z,110
2017-06-19T04:47:21.075Z,110
2017-06-19T04:48:30.294Z,110
2017-06-19T04:49:39.509Z,110
2017-06-19T04:50:48.396Z,110
2017-06-19T04:51:57.288Z,115
2017-06-19T04:53:06.556Z,115
2017-06-19T04:54:15.771Z,115
2017-06-19T04:55:24.985Z,115
2017-06-19T04:56:33.874Z,115
2017-06-19T04:57:42.767Z,115
2017-06-19T04:58:52.140Z,120
2017-06-19T05:00:01.029Z,120
2017-06-19T05:01:10.246Z,120
2017-06-19T05:02:19.460Z,120
2017-06-19T05:03:28.353Z,120
2017-06-19T05:04:37.296Z,120
2017-06-19T05:05:46.184Z,120
2017-06-19T05:06:55.073Z,125
2017-06-19T05:08:03.966Z,125
2017-06-19T05:09:12.856Z,125
2017-06-19T05:10:21.782Z,125
2017-06-19T05:11:31.001Z,125
2017-06-19T05:12:39.934Z,125
2017-06-19T05:13:49.152Z,125
2017-06-19T05:14:58.047Z,125
2017-06-19T05:16:06.941Z,130
2017-06-19T05:17:15.835Z,130
2017-06-19T05:18:24.728Z,130
2017-06-19T05:19:33.618Z,130
2017-06-19T05:20:42.543Z,130
2017-06-19T05:21:51.912Z,130
2017-06-19T05:23:01.456Z,130
2017-06-19T05:24:10.404Z,130
2017-06-19T05:25:19.294Z,135
2017-06-19T05:26:28.186Z,135
2017-06-19T05:27:37.404Z,135
2017-06-19T05:28:46.623Z,135
2017-06-19T05:29:55.840Z,135
2017-06-19T05:31:05.058Z,135
2017-06-19T05:32:14.281Z,135
2017-06-19T05:33:23.322Z,135
2017-06-19T05:34:32.213Z,140
2017-06-19T05:35:41.107Z,140
2017-06-19T05:36:50.003Z,140
2017-06-19T05:37:58.894Z,140
2017-06-19T05:39:07.944Z,145
2017-06-19T05:40:16.838Z,140
2017-06-19T05:41:25.735Z,140
2017-06-19T05:42:34.955Z,140
2017-06-19T05:43:44.173Z,140
2017-06-19T05:44:53.441Z,140
2017-06-19T05:46:02.656Z,140
2017-06-19T05:47:11.544Z,140
2017-06-19T05:48:20.435Z,145
2017-06-19T05:49:29.327Z,145
2017-06-19T05:50:38.369Z,145
2017-06-19T05:51:47.260Z,145
2017-06-19T05:52:56.158Z,145
2017-06-19T05:54:05.701Z,145
2017-06-19T05:55:14.923Z,145
2017-06-19T05:56:24.143Z,145
2017-06-19T05:57:33.038Z,145
2017-06-19T05:58:41.926Z,150
2017-06-19T05:59:50.825Z,150
2017-06-19T06:01:00.042Z,150
2017-06-19T06:02:09.591Z,150
2017-06-19T06:03:18.496Z,150
2017-06-19T06:04:27.420Z,150
2017-06-19T06:05:36.323Z,150
2017-06-19T06:06:45.219Z,150
2017-06-19T06:07:54.108Z,150
2017-06-19T06:09:03.002Z,150
2017-06-19T06:10:11.895Z,150
2017-06-19T06:11:20.792Z,150
2017-06-19T06:12:30.034Z,150
2017-06-19T06:13:38.922Z,150
2017-06-19T06:14:47.817Z,150
2017-06-19T06:15:57.684Z,150
2017-06-19T06:17:07.236Z,155
2017-06-19T06:18:16.164Z,155
2017-06-19T06:19:25.065Z,155
2017-06-19T06:20:33.971Z,155
2017-06-19T06:21:43.169Z,155
2017-06-19T06:22:52.064Z,155
2017-06-19T06:24:01.934Z,155
2017-06-19T06:25:10.831Z,155
2017-06-19T06:26:19.726Z,155
2017-06-19T06:27:28.623Z,155
2017-06-19T06:28:37.520Z,155
2017-06-19T06:29:47.059Z,155
2017-06-19T06:30:55.955Z,155
2017-06-19T06:32:05.172Z,160
2017-06-19T06:33:14.118Z,160
2017-06-19T06:34:23.006Z,160
2017-06-19T06:35:31.972Z,160
2017-06-19T06:36:41.476Z,160
2017-06-19T06:37:50.378Z,160
2017-06-19T06:38:59.996Z,160
2017-06-19T06:40:08.988Z,160
2017-06-19T06:41:17.944Z,160
2017-06-19T06:42:27.191Z,165
2017-06-19T06:43:36.085Z,160
2017-06-19T06:44:44.977Z,160
2017-06-19T06:45:53.869Z,160
2017-06-19T06:47:03.410Z,160
2017-06-19T06:48:12.301Z,160
2017-06-19T06:49:21.517Z,160
2017-06-19T06:50:30.414Z,160
2017-06-19T06:51:39.309Z,160
2017-06-19T06:52:48.533Z,160
2017-06-19T06:53:57.435Z,160
2017-06-19T06:55:06.339Z,160
2017-06-19T06:56:15.242Z,160
2017-06-19T06:57:24.146Z,160
2017-06-19T06:58:33.047Z,160
2017-06-19T06:59:41.940Z,160
2017-06-19T07:00:51.480Z,160
2017-06-19T07:02:00.710Z,160
2017-06-19T07:03:09.931Z,160
2017-06-19T07:04:18.824Z,160
2017-06-19T07:05:28.044Z,165
2017-06-19T07:06:37.585Z,165
2017-06-19T07:07:46.809Z,165
2017-06-19T07:08:56.026Z,165
2017-06-19T07:10:04.918Z,165
2017-06-19T07:11:13.809Z,165
2017-06-19T07:12:22.699Z,165
2017-06-19T07:13:31.591Z,165
2017-06-19T07:14:40.848Z,165
2017-06-19T07:15:49.793Z,165
2017-06-19T07:16:58.692Z,165
2017-06-19T07:18:07.587Z,165
2017-06-19T07:19:17.129Z,165
2017-06-19T07:20:26.023Z,165
2017-06-19T07:21:35.401Z,165
2017-06-19T07:22:44.291Z,170
2017-06-19T07:23:53.191Z,170
2017-06-19T07:25:02.089Z,170
2017-06-19T07:26:11.023Z,170
2017-06-19T07:27:20.401Z,170
2017-06-19T07:28:29.306Z,170
2017-06-19T07:29:38.204Z,170
2017-06-19T07:30:47.422Z,170
2017-06-19T07:31:56.349Z,170
2017-06-19T07:33:05.351Z,170
2017-06-19T07:34:15.227Z,170
2017-06-19T07:35:24.125Z,175
2017-06-19T07:36:33.344Z,175
2017-06-19T07:37:42.240Z,175
2017-06-19T07:38:51.237Z,175
2017-06-19T07:40:00.457Z,175
2017-06-19T07:41:09.353Z,175
2017-06-19T07:42:18.248Z,175
2017-06-19T07:43:27.527Z,175
2017-06-19T07:44:36.525Z,180
2017-06-19T07:45:45.752Z,180
2017-06-19T07:46:54.666Z,180
2017-06-19T07:48:03.892Z,180
2017-06-19T07:49:12.819Z,180
2017-06-19T07:50:22.101Z,180
2017-06-19T07:51:31.001Z,180
2017-06-19T07:52:39.906Z,180
2017-06-19T07:53:48.810Z,185
2017-06-19T07:54:57.705Z,180
2017-06-19T07:56:07.312Z,180
2017-06-19T07:57:16.208Z,185
2017-06-19T07:58:25.105Z,185
2017-06-19T07:59:34.332Z,185
2017-06-19T08:00:43.239Z,185
2017-06-19T08:01:52.291Z,185
2017-06-19T08:03:01.194Z,185
2017-06-19T08:04:10.430Z,185
2017-06-19T08:05:19.328Z,185
2017-06-19T08:06:28.227Z,185
2017-06-19T08:07:38.267Z,185
2017-06-19T08:08:48.470Z,190
2017-06-19T08:09:57.700Z,190
2017-06-19T08:11:07.252Z,190
2017-06-19T08:12:16.469Z,190
2017-06-19T08:13:25.614Z,190
2017-06-19T08:14:34.840Z,190
2017-06-19T08:15:44.066Z,190
2017-06-19T08:16:52.963Z,190
2017-06-19T08:18:02.184Z,195
2017-06-19T08:19:11.790Z,195
2017-06-19T08:20:21.665Z,195
2017-06-19T08:21:30.567Z,195
2017-06-19T08:22:39.465Z,195
2017-06-19T08:23:49.013Z,195
2017-06-19T08:24:58.057Z,195
2017-06-19T08:26:07.279Z,195
2017-06-19T08:27:16.823Z,195
2017-06-19T08:28:26.086Z,195
2017-06-19T08:29:35.635Z,195
2017-06-19T08:30:45.058Z,195
2017-06-19T08:31:54.941Z,195
2017-06-19T08:33:04.818Z,195
2017-06-19T08:34:14.368Z,195
2017-06-19T08:35:23.913Z,200
2017-06-19T08:36:33.289Z,200
2017-06-19T08:37:42.513Z,200
2017-06-19T08:38:52.064Z,200
2017-06-19T08:40:01.626Z,200
2017-06-19T08:41:10.845Z,200
2017-06-19T08:42:19.802Z,200
2017-06-19T08:43:29.040Z,205
2017-06-19T08:44:37.942Z,205
2017-06-19T08:45:47.161Z,210
2017-06-19T08:46:56.057Z,210
2017-06-19T08:48:05.327Z,210
2017-06-19T08:49:14.224Z,210
2017-06-19T08:50:23.122Z,215
2017-06-19T08:51:32.346Z,215
2017-06-19T08:52:41.572Z,215
2017-06-19T08:53:51.233Z,215
2017-06-19T08:55:00.463Z,215
2017-06-19T08:56:10.014Z,215
2017-06-19T08:57:19.241Z,215
2017-06-19T08:58:28.137Z,215
2017-06-19T08:59:37.460Z,220
2017-06-19T09:00:46.362Z,220
2017-06-19T09:01:55.594Z,220
2017-06-19T09:03:04.495Z,220
2017-06-19T09:04:13.395Z,225
2017-06-19T09:05:22.297Z,230
2017-06-19T09:06:31.194Z,235
2017-06-19T09:07:40.425Z,235
2017-06-19T09:08:49.317Z,240
2017-06-19T09:09:58.549Z,245
2017-06-19T09:11:07.926Z,240
2017-06-19T09:12:17.482Z,230
2017-06-19T09:13:26.701Z,230
2017-06-19T09:14:35.600Z,230
2017-06-19T09:15:44.496Z,235
2017-06-19T09:16:53.542Z,240
2017-06-19T09:18:02.439Z,245
2017-06-19T09:19:11.987Z,245
2017-06-19T09:20:20.882Z,245
2017-06-19T09:21:29.786Z,240
2017-06-19T09:22:39.159Z,240
2017-06-19T09:23:48.056Z,240
2017-06-19T09:24:56.955Z,240
2017-06-19T09:26:05.855Z,240
2017-06-19T09:27:15.405Z,240
2017-06-19T09:28:24.299Z,235
2017-06-19T09:29:33.249Z,235
2017-06-19T09:30:42.804Z,235
2017-06-19T09:31:52.035Z,235
2017-06-19T09:33:01.581Z,235
2017-06-19T09:34:11.005Z,235
2017-06-19T09:35:19.903Z,235
2017-06-19T09:36:29.126Z,235
2017-06-19T09:37:38.351Z,235
2017-06-19T09:38:47.579Z,235
2017-06-19T09:39:57.178Z,235
2017-06-19T09:41:06.729Z,235
2017-06-19T09:42:15.630Z,235
2017-06-19T09:43:24.855Z,235
2017-06-19T09:44:34.075Z,235
2017-06-19T09:45:43.397Z,240
2017-06-19T09:46:52.622Z,240
2017-06-19T09:48:01.518Z,240
2017-06-19T09:49:10.738Z,240
2017-06-19T09:50:19.633Z,245
2017-06-19T09:51:28.538Z,250
2017-06-19T09:52:37.760Z,250
2017-06-19T09:53:46.984Z,250
2017-06-19T09:54:56.534Z,250
2017-06-19T09:56:05.755Z,255
2017-06-19T09:57:14.704Z,255
2017-06-19T09:58:24.263Z,260
2017-06-19T09:59:33.844Z,260
2017-06-19T10:00:43.717Z,265
2017-06-19T10:01:52.619Z,270
2017-06-19T10:03:01.969Z,250
2017-06-19T10:04:11.200Z,245
2017-06-19T10:05:20.425Z,265
2017-06-19T10:06:29.327Z,270
2017-06-19T10:07:38.222Z,270
2017-06-19T10:08:47.168Z,280
2017-06-19T10:09:56.066Z,290
2017-06-19T10:11:05.290Z,295
2017-06-19T10:12:14.187Z,305
2017-06-19T10:13:23.086Z,305
2017-06-19T10:14:31.982Z,300
2017-06-19T10:15:41.210Z,320
2017-06-19T10:16:50.112Z,340
2017-06-19T10:17:59.345Z,355
2017-06-19T10:19:08.570Z,355
2017-06-19T10:20:17.953Z,355
2017-06-19T10:21:27.185Z,375
2017-06-19T10:22:36.081Z,385
2017-06-19T10:23:44.978Z,375
2017-06-19T10:24:54.204Z,355
2017-06-19T10:26:03.290Z,345
2017-06-19T10:27:12.853Z,345
2017-06-19T10:28:21.751Z,345
2017-06-19T10:29:30.679Z,340
2017-06-19T10:30:39.580Z,340
2017-06-19T10:31:48.479Z,335
2017-06-19T10:32:57.382Z,335
2017-06-19T10:34:06.301Z,335
2017-06-19T10:35:15.525Z,335
2017-06-19T10:36:24.421Z,340
2017-06-19T10:37:33.319Z,340
2017-06-19T10:38:43.202Z,350
2017-06-19T10:39:52.101Z,350
2017-06-19T10:41:01.326Z,345
2017-06-19T10:42:10.556Z,350
2017-06-19T10:43:19.457Z,365
2017-06-19T10:44:28.355Z,380
2017-06-19T10:45:37.259Z,410
2017-06-19T10:46:46.811Z,450
2017-06-19T10:47:55.715Z,450
2017-06-19T10:49:05.038Z,450
2017-06-19T10:50:13.938Z,410
2017-06-19T10:51:23.161Z,395
2017-06-19T10:52:32.383Z,395
2017-06-19T10:53:41.280Z,425
2017-06-19T10:54:50.229Z,495
2017-06-19T10:55:59.452Z,550
2017-06-19T10:57:08.677Z,550
2017-06-19T10:58:17.582Z,565
2017-06-19T10:59:26.844Z,545
2017-06-19T11:00:35.849Z,525
2017-06-19T11:01:45.477Z,530
2017-06-19T11:02:54.381Z,510
2017-06-19T11:04:03.283Z,505
2017-06-19T11:05:12.833Z,485
2017-06-19T11:06:21.731Z,505
2017-06-19T11:07:30.962Z,505
2017-06-19T11:08:39.885Z,515
2017-06-19T11:09:48.786Z,505
2017-06-19T11:10:58.012Z,465
2017-06-19T11:12:07.345Z,410
2017-06-19T11:13:16.900Z,355
2017-06-19T11:14:25.804Z,305
2017-06-19T11:15:34.711Z,305
2017-06-19T11:16:43.616Z,335
2017-06-19T11:17:52.918Z,430
2017-06-19T11:19:02.152Z,510
2017-06-19T11:20:11.379Z,540
2017-06-19T11:21:20.279Z,495
2017-06-19T11:22:29.507Z,470
2017-06-19T11:23:38.508Z,475
2017-06-19T11:24:47.414Z,435
2017-06-19T11:25:56.325Z,455
2017-06-19T11:27:05.887Z,450
2017-06-19T11:28:14.787Z,470
2017-06-19T11:29:23.936Z,495
2017-06-19T11:30:32.842Z,490
2017-06-19T11:31:41.768Z,505
2017-06-19T11:32:50.671Z,500
2017-06-19T11:33:59.573Z,480
2017-06-19T11:35:09.225Z,480
2017-06-19T11:36:18.187Z,490
2017-06-19T11:37:27.415Z,470
2017-06-19T11:38:36.320Z,450
2017-06-19T11:39:45.245Z,415
2017-06-19T11:40:54.896Z,445
2017-06-19T11:42:03.832Z,520
2017-06-19T11:43:13.424Z,580
2017-06-19T11:44:22.890Z,590
2017-06-19T11:45:32.122Z,575
2017-06-19T11:46:41.221Z,540
2017-06-19T11:47:50.819Z,485
2017-06-19T11:49:00.058Z,455
2017-06-19T11:50:09.281Z,470
2017-06-19T11:51:18.188Z,490
2017-06-19T11:52:27.093Z,510
2017-06-19T11:53:35.995Z,805
2017-06-19T11:54:44.902Z,2645
2017-06-19T11:55:53.807Z,3360
2017-06-19T11:57:02.765Z,3505
2017-06-19T11:58:12.013Z,3360
2017-06-19T11:59:21.571Z,3385
2017-06-19T12:00:30.497Z,3435
2017-06-19T12:01:39.738Z,3775
2017-06-19T12:02:49.031Z,475
2017-06-19T12:03:58.159Z,505
2017-06-19T12:05:07.778Z,3485
2017-06-19T12:06:17.042Z,3725
2017-06-19T12:07:26.279Z,550
2017-06-19T12:08:35.185Z,515
2017-06-19T12:09:44.241Z,3275
2017-06-19T12:10:53.510Z,3635
2017-06-19T12:12:02.751Z,3440
2017-06-19T12:13:11.984Z,3835
2017-06-19T12:14:21.425Z,3890
2017-06-19T12:15:30.436Z,3735
2017-06-19T12:16:39.664Z,3805
2017-06-19T12:17:48.602Z,3850
2017-06-19T12:18:57.535Z,3240
2017-06-19T12:20:06.784Z,3515
2017-06-19T12:21:16.495Z,3735
2017-06-19T12:22:25.402Z,4000
2017-06-19T12:23:34.632Z,3820
2017-06-19T12:24:44.206Z,3630
2017-06-19T12:25:53.449Z,3745
2017-06-19T12:27:03.123Z,3995
2017-06-19T12:28:12.033Z,3630
2017-06-19T12:29:20.948Z,3530
2017-06-19T12:30:30.182Z,4000
2017-06-19T12:31:39.100Z,3730
2017-06-19T12:32:48.014Z,3800
2017-06-19T12:33:56.925Z,4000
2017-06-19T12:35:06.170Z,3955
2017-06-19T12:36:15.093Z,3860
2017-06-19T12:37:24.008Z,3945
2017-06-19T12:38:33.299Z,3940
2017-06-19T12:39:42.217Z,3950
2017-06-19T12:40:51.824Z,4005
2017-06-19T12:42:00.740Z,4085
2017-06-19T12:43:09.654Z,4130
2017-06-19T12:44:18.939Z,3980
2017-06-19T12:45:27.858Z,3830
2017-06-19T12:46:36.771Z,1625
2017-06-19T12:47:46.339Z,3185
2017-06-19T12:48:55.268Z,3925
2017-06-19T12:50:04.570Z,3835
2017-06-19T12:51:13.804Z,3655
2017-06-19T12:52:22.721Z,3670
2017-06-19T12:53:31.638Z,3930
2017-06-19T12:54:40.554Z,4195
2017-06-19T12:55:50.271Z,3770
2017-06-19T12:56:59.191Z,3745
2017-06-19T12:58:08.106Z,3360
2017-06-19T12:59:17.023Z,1130
2017-06-19T13:00:26.612Z,700
2017-06-19T13:01:35.926Z,3145
2017-06-19T13:02:44.840Z,1195
2017-06-19T13:03:53.752Z,2295
2017-06-19T13:05:02.664Z,4165
2017-06-19T13:06:11.604Z,3890
2017-06-19T13:07:20.534Z,2625
2017-06-19T13:08:29.467Z,1150
2017-06-19T13:09:38.383Z,955
2017-06-19T13:10:47.295Z,1225
2017-06-19T13:11:56.278Z,3680
2017-06-19T13:13:05.538Z,3615
2017-06-19T13:14:14.460Z,3765
2017-06-19T13:15:23.720Z,4040
2017-06-19T13:16:32.641Z,4060
2017-06-19T13:17:41.884Z,3920
2017-06-19T13:18:51.119Z,2780
2017-06-19T13:20:00.363Z,820
2017-06-19T13:21:09.295Z,815
2017-06-19T13:22:18.222Z,1100
2017-06-19T13:23:27.457Z,4125
2017-06-19T13:24:36.390Z,3720
2017-06-19T13:25:45.633Z,3920
2017-06-19T13:26:54.896Z,3985
2017-06-19T13:28:04.463Z,3775
2017-06-19T13:29:13.433Z,3875
2017-06-19T13:30:22.673Z,3665
2017-06-19T13:31:31.927Z,3895
2017-06-19T13:32:41.531Z,4415
2017-06-19T13:33:50.444Z,4070
2017-06-19T13:34:59.950Z,1190
2017-06-19T13:36:09.193Z,4005
2017-06-19T13:37:18.111Z,3730
2017-06-19T13:38:27.029Z,4140
2017-06-19T13:39:35.941Z,850
2017-06-19T13:40:45.158Z,810
2017-06-19T13:41:54.411Z,890
2017-06-19T13:43:03.655Z,2185
2017-06-19T13:44:12.573Z,4095
2017-06-19T13:45:21.828Z,4020
2017-06-19T13:46:30.742Z,3955
2017-06-19T13:47:40.308Z,4050
2017-06-19T13:48:49.251Z,3970
2017-06-19T13:49:58.493Z,4005
2017-06-19T13:51:07.411Z,3965
2017-06-19T13:52:16.482Z,3785
2017-06-19T13:53:25.407Z,3960
2017-06-19T13:54:34.329Z,4085
2017-06-19T13:55:43.247Z,3995
2017-06-19T13:56:52.162Z,3850
2017-06-19T13:58:01.080Z,3830
2017-06-19T13:59:09.998Z,3715
2017-06-19T14:00:18.919Z,3620
2017-06-19T14:01:27.835Z,3640
2017-06-19T14:02:36.752Z,3760
2017-06-19T14:03:45.765Z,3625
2017-06-19T14:04:55.012Z,3690
2017-06-19T14:06:04.252Z,3945
2017-06-19T14:07:13.819Z,3410
2017-06-19T14:08:22.735Z,3485
2017-06-19T14:09:31.909Z,3575
2017-06-19T14:10:40.826Z,3525
2017-06-19T14:11:50.070Z,3515
2017-06-19T14:12:58.988Z,3480
2017-06-19T14:14:07.907Z,3440
2017-06-19T14:15:17.404Z,3470
2017-06-19T14:16:26.321Z,3290
2017-06-19T14:17:35.252Z,3270
2017-06-19T14:18:44.169Z,3315
2017-06-19T14:19:53.098Z,3205
2017-06-19T14:21:02.341Z,3365
2017-06-19T14:22:11.275Z,3475
2017-06-19T14:23:20.198Z,3440
2017-06-19T14:24:29.119Z,3310
2017-06-19T14:25:38.038Z,3360
2017-06-19T14:26:47.385Z,3365
2017-06-19T14:27:56.303Z,3310
2017-06-19T14:29:05.220Z,3175
2017-06-19T14:30:14.471Z,3320
2017-06-19T14:31:23.445Z,3365
2017-06-19T14:32:32.410Z,3285
2017-06-19T14:33:41.431Z,3320
2017-06-19T14:34:50.414Z,3235
2017-06-19T14:35:59.463Z,3260
2017-06-19T14:37:08.471Z,3085
2017-06-19T14:38:17.878Z,2995
2017-06-19T14:39:26.798Z,3455
2017-06-19T14:40:35.719Z,3305
2017-06-19T14:41:44.674Z,3240
2017-06-19T14:42:53.593Z,3215
2017-06-19T14:44:02.541Z,3025
2017-06-19T14:45:11.466Z,3055
2017-06-19T14:46:20.728Z,1640
2017-06-19T14:47:29.970Z,1730
2017-06-19T14:48:38.896Z,3010
2017-06-19T14:49:47.818Z,545
2017-06-19T14:50:56.738Z,500
2017-06-19T14:52:05.980Z,490
2017-06-19T14:53:14.907Z,500
2017-06-19T14:54:23.818Z,600
2017-06-19T14:55:33.055Z,705
2017-06-19T14:56:42.314Z,2940
2017-06-19T14:57:51.634Z,3150
2017-06-19T14:59:00.551Z,3050
2017-06-19T15:00:09.821Z,3000
2017-06-19T15:01:18.742Z,3010
2017-06-19T15:02:27.909Z,3045
2017-06-19T15:03:36.881Z,3115
2017-06-19T15:04:45.797Z,2965
2017-06-19T15:05:54.718Z,2835
2017-06-19T15:07:03.636Z,2815
2017-06-19T15:08:12.879Z,3030
2017-06-19T15:09:22.093Z,2935
2017-06-19T15:10:31.007Z,2830
2017-06-19T15:11:40.254Z,2775
2017-06-19T15:12:49.166Z,2905
2017-06-19T15:13:58.407Z,2915
2017-06-19T15:15:07.475Z,2790
2017-06-19T15:16:16.397Z,2740
2017-06-19T15:17:26.007Z,2850
2017-06-19T15:18:34.930Z,2870
2017-06-19T15:19:43.850Z,2705
2017-06-19T15:20:53.247Z,2780
2017-06-19T15:22:02.164Z,2860
2017-06-19T15:23:11.087Z,2875
2017-06-19T15:24:20.326Z,2940
2017-06-19T15:25:29.248Z,2930
2017-06-19T15:26:38.320Z,2885
2017-06-19T15:27:47.566Z,2900
2017-06-19T15:28:56.812Z,2890
2017-06-19T15:30:05.730Z,2780
2017-06-19T15:31:14.652Z,2745
2017-06-19T15:32:23.891Z,2800
2017-06-19T15:33:32.808Z,2830
2017-06-19T15:34:42.050Z,2725
2017-06-19T15:35:51.291Z,2740
2017-06-19T15:37:00.211Z,3230
2017-06-19T15:38:09.553Z,1750
2017-06-19T15:39:18.795Z,2050
2017-06-19T15:40:27.713Z,2550
2017-06-19T15:41:36.637Z,2615
2017-06-19T15:42:45.564Z,2690
2017-06-19T15:43:55.110Z,2780
2017-06-19T15:45:04.025Z,2780
2017-06-19T15:46:12.940Z,2705
2017-06-19T15:47:22.509Z,2780
2017-06-19T15:48:31.424Z,2780
2017-06-19T15:49:40.741Z,2730
2017-06-19T15:50:49.657Z,2745
2017-06-19T15:51:59.229Z,2785
2017-06-19T15:53:08.161Z,2890
2017-06-19T15:54:17.402Z,2790
2017-06-19T15:55:26.421Z,2705
2017-06-19T15:56:35.340Z,2690
2017-06-19T15:57:44.582Z,2640
2017-06-19T15:58:53.498Z,2715